Time;durP1;ratioP1;P1;durP2;ratioP2;P2;SDS_P1;SDS_P2;PMS_P1;PMS_P2;Temp;Humidity;BMP_temperature;BMP_pressure;BME280_temperature;BME280_humidity;BME280_pressure;Samples;Min_cycle;Max_cycle;Signal;HPM_P1;HPM_P2
2022/09/04 00:02:13;;;;;;;5.47;1.65;;;;;;;;;;5022257;28;20182;-64
2022/09/04 00:04:59;;;;;;;5.13;1.50;;;;;;;;;;5011485;28;20201;-65
2022/09/04 00:07:49;;;;;;;4.80;1.65;;;;;;;;;;5022020;28;20276;-65
2022/09/04 00:10:36;;;;;;;5.72;1.77;;;;;;;;;;5024790;28;20181;-65
2022/09/04 00:13:09;;;;;;;3.45;1.70;;;;;;;;;;5015633;28;20324;-64
2022/09/04 00:15:42;;;;;;;2.05;1.88;;;;;;;;;;5019766;28;20190;-65
2022/09/04 00:18:13;;;;;;;2.90;1.88;;;;;;;;;;5021200;28;20182;-65
2022/09/04 00:20:45;;;;;;;5.88;1.80;;;;;;;;;;5020488;28;20190;-64
2022/09/04 00:23:24;;;;;;;4.82;2.08;;;;;;;;;;5017832;28;20219;-64
2022/09/04 00:26:01;;;;;;;3.55;2.13;;;;;;;;;;5020277;28;20232;-65
2022/09/04 00:28:49;;;;;;;2.92;1.85;;;;;;;;;;5019395;28;20182;-64
2022/09/04 00:31:18;;;;;;;4.05;2.40;;;;;;;;;;5017093;28;20221;-64
2022/09/04 00:33:59;;;;;;;2.97;2.20;;;;;;;;;;5017337;28;20310;-65
2022/09/04 00:36:26;;;;;;;2.78;2.20;;;;;;;;;;5019905;28;20850;-64
2022/09/04 00:39:01;;;;;;;5.03;2.42;;;;;;;;;;5024898;28;20266;-66
2022/09/04 00:41:53;;;;;;;3.17;2.00;;;;;;;;;;5017947;28;20181;-65
2022/09/04 00:44:37;;;;;;;3.22;2.17;;;;;;;;;;5019408;28;20179;-64
2022/09/04 00:47:24;;;;;;;2.60;2.00;;;;;;;;;;5014959;28;20282;-64
2022/09/04 00:50:06;;;;;;;5.43;2.28;;;;;;;;;;5021450;28;20178;-64
2022/09/04 00:53:04;;;;;;;2.83;2.28;;;;;;;;;;5017775;28;20643;-65
2022/09/04 00:56:14;;;;;;;6.50;2.42;;;;;;;;;;5019094;28;20182;-65
2022/09/04 00:58:51;;;;;;;3.25;2.70;;;;;;;;;;5020804;28;20542;-65
2022/09/04 01:01:23;;;;;;;6.60;2.10;;;;;;;;;;5016336;28;20210;-65
2022/09/04 01:03:58;;;;;;;3.55;2.55;;;;;;;;;;5018800;28;20174;-65
2022/09/04 01:06:34;;;;;;;2.50;2.13;;;;;;;;;;5014308;28;20185;-65
2022/09/04 01:09:23;;;;;;;4.43;2.50;;;;;;;;;;5019716;28;20181;-65
2022/09/04 01:12:18;;;;;;;2.58;2.20;;;;;;;;;;5019304;28;20241;-65
2022/09/04 01:14:59;;;;;;;2.25;2.03;;;;;;;;;;5016275;28;20191;-65
2022/09/04 01:17:32;;;;;;;6.75;2.50;;;;;;;;;;5019522;28;20178;-65
2022/09/04 01:20:19;;;;;;;4.35;2.55;;;;;;;;;;5016359;28;20255;-65
2022/09/04 01:23:18;;;;;;;5.90;2.72;;;;;;;;;;5021682;28;20221;-65
2022/09/04 01:25:49;;;;;;;5.07;3.00;;;;;;;;;;5014304;28;20672;-65
2022/09/04 01:28:20;;;;;;;3.58;2.38;;;;;;;;;;5021694;28;20175;-65
2022/09/04 01:30:56;;;;;;;3.53;2.80;;;;;;;;;;5020362;28;20182;-65
2022/09/04 01:33:41;;;;;;;4.47;2.67;;;;;;;;;;5020896;28;20183;-65
2022/09/04 01:36:34;;;;;;;8.52;2.53;;;;;;;;;;5019667;28;20269;-65
2022/09/04 01:39:01;;;;;;;4.60;3.00;;;;;;;;;;5023361;28;20187;-65
2022/09/04 01:41:44;;;;;;;3.50;2.65;;;;;;;;;;5012935;28;20186;-65
2022/09/04 01:44:10;;;;;;;4.22;2.58;;;;;;;;;;5016572;28;20289;-65
2022/09/04 01:46:38;;;;;;;7.43;2.47;;;;;;;;;;5022961;28;20260;-65
2022/09/04 01:49:29;;;;;;;2.75;2.55;;;;;;;;;;5014698;28;20633;-65
2022/09/04 01:52:07;;;;;;;4.07;2.92;;;;;;;;;;5018686;28;20710;-65
2022/09/04 01:54:51;;;;;;;4.47;2.70;;;;;;;;;;5020351;28;20248;-66
2022/09/04 01:57:28;;;;;;;3.85;2.92;;;;;;;;;;5019317;28;20902;-65
2022/09/04 02:00:02;;;;;;;3.38;3.00;;;;;;;;;;5018387;28;20212;-65
2022/09/04 02:02:30;;;;;;;3.88;2.65;;;;;;;;;;5011784;28;20671;-65
2022/09/04 02:04:56;;;;;;;6.50;3.03;;;;;;;;;;5012432;28;20298;-66
2022/09/04 02:07:27;;;;;;;6.00;3.22;;;;;;;;;;5019691;28;20322;-65
2022/09/04 02:10:05;;;;;;;6.05;3.20;;;;;;;;;;5018014;28;20183;-65
2022/09/04 02:12:58;;;;;;;4.38;3.30;;;;;;;;;;5013548;28;20297;-65
2022/09/04 02:16:02;;;;;;;4.60;3.30;;;;;;;;;;5019897;28;20182;-65
2022/09/04 02:18:45;;;;;;;3.85;3.03;;;;;;;;;;5018332;28;20664;-65
2022/09/04 02:21:32;;;;;;;5.07;3.38;;;;;;;;;;5018866;28;20193;-65
2022/09/04 02:24:12;;;;;;;3.00;2.70;;;;;;;;;;5018158;28;20179;-65
2022/09/04 02:26:51;;;;;;;3.35;3.03;;;;;;;;;;5015657;28;20538;-65
2022/09/04 02:29:38;;;;;;;4.75;3.17;;;;;;;;;;5015710;28;20182;-65
2022/09/04 02:32:22;;;;;;;5.13;3.15;;;;;;;;;;5015445;28;20209;-65
2022/09/04 02:35:04;;;;;;;3.50;3.10;;;;;;;;;;5015712;28;20204;-65
2022/09/04 02:37:42;;;;;;;4.78;3.20;;;;;;;;;;5018916;28;20178;-65
2022/09/04 02:40:25;;;;;;;7.22;3.50;;;;;;;;;;5019151;28;20661;-65
2022/09/04 02:43:15;;;;;;;3.50;3.20;;;;;;;;;;5020753;28;20178;-65
2022/09/04 02:45:50;;;;;;;10.75;4.00;;;;;;;;;;5018382;28;20182;-65
2022/09/04 02:48:39;;;;;;;4.20;3.35;;;;;;;;;;5015663;28;20261;-65
2022/09/04 02:51:54;;;;;;;7.63;3.75;;;;;;;;;;5011973;28;20210;-65
2022/09/04 02:54:51;;;;;;;3.40;3.13;;;;;;;;;;5019636;28;20274;-65
2022/09/04 02:57:38;;;;;;;5.93;3.42;;;;;;;;;;5021408;28;20210;-65
2022/09/04 03:00:16;;;;;;;5.53;3.55;;;;;;;;;;5016269;28;20265;-65
2022/09/04 03:02:54;;;;;;;5.93;3.83;;;;;;;;;;5019916;28;20183;-65
2022/09/04 03:05:49;;;;;;;6.78;3.42;;;;;;;;;;5015247;28;20179;-65
2022/09/04 03:08:20;;;;;;;4.65;3.40;;;;;;;;;;5021327;28;20202;-66
2022/09/04 03:11:03;;;;;;;4.82;3.95;;;;;;;;;;5011196;28;20174;-66
2022/09/04 03:13:35;;;;;;;5.25;4.03;;;;;;;;;;5017765;28;20177;-66
2022/09/04 03:16:28;;;;;;;4.05;3.63;;;;;;;;;;5016540;28;20185;-66
2022/09/04 03:19:06;;;;;;;4.57;3.72;;;;;;;;;;5011241;28;20223;-66
2022/09/04 03:21:47;;;;;;;7.22;3.90;;;;;;;;;;5012928;28;20521;-65
2022/09/04 03:24:36;;;;;;;6.47;3.35;;;;;;;;;;5017538;28;20242;-65
2022/09/04 03:27:04;;;;;;;4.03;3.63;;;;;;;;;;5010210;28;20191;-65
2022/09/04 03:29:59;;;;;;;6.03;3.90;;;;;;;;;;5020906;28;20228;-66
2022/09/04 03:32:53;;;;;;;5.88;3.92;;;;;;;;;;5017857;28;20414;-66
2022/09/04 03:35:36;;;;;;;6.03;3.88;;;;;;;;;;5013051;28;20183;-66
2022/09/04 03:38:21;;;;;;;4.50;4.10;;;;;;;;;;5022064;28;20178;-66
2022/09/04 03:40:56;;;;;;;4.38;3.95;;;;;;;;;;5014757;28;20191;-66
2022/09/04 03:43:36;;;;;;;4.55;4.05;;;;;;;;;;5020580;28;20174;-66
2022/09/04 03:46:23;;;;;;;5.82;3.85;;;;;;;;;;5013753;28;20481;-65
2022/09/04 03:49:11;;;;;;;6.50;4.18;;;;;;;;;;5014372;28;20186;-65
2022/09/04 03:52:19;;;;;;;4.28;3.88;;;;;;;;;;5017937;28;20293;-66
2022/09/04 03:54:59;;;;;;;6.15;4.10;;;;;;;;;;5015395;28;20277;-66
2022/09/04 03:57:48;;;;;;;5.53;4.55;;;;;;;;;;5013760;28;20273;-65
2022/09/04 04:00:18;;;;;;;8.48;3.97;;;;;;;;;;5012280;28;20189;-65
2022/09/04 04:03:35;;;;;;;7.45;3.88;;;;;;;;;;5019706;28;20599;-65
2022/09/04 04:06:33;;;;;;;4.60;4.03;;;;;;;;;;5014552;28;20514;-65
2022/09/04 04:09:36;;;;;;;6.28;4.43;;;;;;;;;;5015415;28;20191;-65
2022/09/04 04:12:29;;;;;;;5.65;4.03;;;;;;;;;;5019005;28;20224;-66
2022/09/04 04:15:12;;;;;;;5.32;4.18;;;;;;;;;;5017879;28;20210;-66
2022/09/04 04:17:54;;;;;;;5.53;4.07;;;;;;;;;;5020386;28;20236;-66
2022/09/04 04:20:36;;;;;;;4.68;4.28;;;;;;;;;;5017133;28;20254;-66
2022/09/04 04:23:46;;;;;;;9.32;4.20;;;;;;;;;;5022536;28;20182;-66
2022/09/04 04:26:49;;;;;;;5.90;4.35;;;;;;;;;;5010912;28;20232;-66
2022/09/04 04:29:47;;;;;;;5.72;4.18;;;;;;;;;;5020196;28;20340;-66
2022/09/04 04:32:38;;;;;;;6.65;4.30;;;;;;;;;;5018963;28;20210;-65
2022/09/04 04:35:47;;;;;;;8.57;5.47;;;;;;;;;;5013580;28;20563;-65
2022/09/04 04:38:48;;;;;;;5.20;4.53;;;;;;;;;;5014449;28;20208;-65
2022/09/04 04:42:02;;;;;;;8.32;4.80;;;;;;;;;;5016880;28;20209;-65
2022/09/04 04:45:48;;;;;;;6.57;4.72;;;;;;;;;;5018023;28;20206;-65
2022/09/04 04:47:33;;;;;;;5.57;4.40;;;;;;;;;;5023740;28;20205;-66
2022/09/04 04:50:05;;;;;;;7.40;4.57;;;;;;;;;;5023850;28;20194;-65
2022/09/04 04:52:55;;;;;;;12.15;4.40;;;;;;;;;;5020481;28;20449;-65
2022/09/04 04:55:39;;;;;;;5.05;4.55;;;;;;;;;;5020140;28;20692;-66
2022/09/04 04:58:04;;;;;;;5.18;4.25;;;;;;;;;;5013495;28;20179;-66
2022/09/04 05:00:38;;;;;;;4.95;4.13;;;;;;;;;;5024391;28;20186;-65
2022/09/04 05:03:31;;;;;;;7.07;4.45;;;;;;;;;;5020910;28;20189;-65
2022/09/04 05:06:12;;;;;;;5.97;4.20;;;;;;;;;;5018173;28;20194;-66
2022/09/04 05:08:41;;;;;;;5.50;4.35;;;;;;;;;;5020275;28;20188;-65
2022/09/04 05:11:22;;;;;;;5.75;4.50;;;;;;;;;;5017078;28;20205;-65
2022/09/04 05:14:05;;;;;;;5.60;4.20;;;;;;;;;;5018035;28;20526;-65
2022/09/04 05:16:54;;;;;;;6.20;4.15;;;;;;;;;;5020751;28;20528;-67
2022/09/04 05:19:42;;;;;;;5.00;4.57;;;;;;;;;;5017967;28;20186;-66
2022/09/04 05:22:30;;;;;;;7.18;3.90;;;;;;;;;;5020167;28;20187;-66
2022/09/04 05:25:01;;;;;;;7.75;4.10;;;;;;;;;;5021342;28;20376;-66
2022/09/04 05:28:03;;;;;;;6.68;4.00;;;;;;;;;;5015571;28;20190;-66
2022/09/04 05:30:41;;;;;;;4.10;3.70;;;;;;;;;;5017257;28;20186;-66
2022/09/04 05:33:24;;;;;;;4.53;4.10;;;;;;;;;;5019141;28;20209;-66
2022/09/04 05:36:04;;;;;;;8.32;4.00;;;;;;;;;;5017123;28;20273;-66
2022/09/04 05:38:39;;;;;;;6.40;4.10;;;;;;;;;;5013501;28;20189;-66
2022/09/04 05:41:13;;;;;;;5.28;4.18;;;;;;;;;;5017072;28;20813;-66
2022/09/04 05:43:47;;;;;;;5.10;3.72;;;;;;;;;;5014090;28;20177;-66
2022/09/04 05:46:51;;;;;;;4.47;3.90;;;;;;;;;;5019475;28;20190;-66
2022/09/04 05:49:44;;;;;;;4.90;4.00;;;;;;;;;;5012405;28;20259;-65
2022/09/04 05:52:33;;;;;;;4.68;4.03;;;;;;;;;;5016367;28;20304;-66
2022/09/04 05:55:23;;;;;;;5.85;3.80;;;;;;;;;;5022144;28;20186;-66
2022/09/04 05:58:19;;;;;;;6.63;3.97;;;;;;;;;;5018332;28;20182;-66
2022/09/04 06:01:06;;;;;;;6.53;4.30;;;;;;;;;;5015096;28;20184;-65
2022/09/04 06:04:00;;;;;;;5.28;3.78;;;;;;;;;;5021305;28;20191;-66
2022/09/04 06:06:32;;;;;;;6.15;4.25;;;;;;;;;;5018853;28;20210;-66
2022/09/04 06:08:57;;;;;;;5.93;3.78;;;;;;;;;;5019526;28;20178;-65
2022/09/04 06:11:55;;;;;;;5.03;3.83;;;;;;;;;;5020123;28;20523;-66
2022/09/04 06:14:29;;;;;;;5.30;4.07;;;;;;;;;;5020533;28;20562;-66
2022/09/04 06:17:19;;;;;;;4.78;3.83;;;;;;;;;;5020802;28;20184;-66
2022/09/04 06:20:09;;;;;;;4.47;3.83;;;;;;;;;;5017466;28;20179;-66
2022/09/04 06:23:08;;;;;;;4.47;4.07;;;;;;;;;;5020592;28;20197;-65
2022/09/04 06:26:07;;;;;;;7.05;4.25;;;;;;;;;;5020202;28;20225;-64
2022/09/04 06:29:04;;;;;;;5.57;3.80;;;;;;;;;;5015811;28;20610;-65
2022/09/04 06:31:52;;;;;;;5.93;3.83;;;;;;;;;;5017941;28;20214;-65
2022/09/04 06:34:29;;;;;;;5.28;3.80;;;;;;;;;;5019047;28;20175;-66
2022/09/04 06:37:14;;;;;;;4.93;3.88;;;;;;;;;;5017973;28;20205;-65
2022/09/04 06:39:53;;;;;;;5.38;3.78;;;;;;;;;;5016697;28;20181;-66
2022/09/04 06:42:34;;;;;;;4.10;3.25;;;;;;;;;;5018998;28;20240;-66
2022/09/04 06:45:19;;;;;;;4.82;4.00;;;;;;;;;;5015928;28;20266;-66
2022/09/04 06:48:02;;;;;;;7.88;3.97;;;;;;;;;;5019491;28;20189;-66
2022/09/04 06:50:52;;;;;;;5.97;4.00;;;;;;;;;;5019411;28;20298;-65
2022/09/04 06:53:30;;;;;;;4.35;3.70;;;;;;;;;;5017979;28;20185;-65
2022/09/04 06:56:36;;;;;;;4.75;4.25;;;;;;;;;;5023369;28;20220;-65
2022/09/04 06:59:35;;;;;;;4.30;3.90;;;;;;;;;;5017187;28;20231;-65
2022/09/04 07:02:32;;;;;;;4.22;3.83;;;;;;;;;;5019480;28;21970;-65
2022/09/04 07:05:13;;;;;;;7.82;3.60;;;;;;;;;;5016810;28;20194;-65
2022/09/04 07:08:02;;;;;;;4.30;3.55;;;;;;;;;;5015050;28;20183;-65
2022/09/04 07:10:37;;;;;;;7.22;4.13;;;;;;;;;;5009720;28;20201;-65
2022/09/04 07:13:30;;;;;;;5.30;3.78;;;;;;;;;;5015383;28;20233;-65
2022/09/04 07:16:35;;;;;;;5.38;3.60;;;;;;;;;;5019693;28;20289;-65
2022/09/04 07:19:09;;;;;;;4.07;3.67;;;;;;;;;;5014993;28;20444;-65
2022/09/04 07:22:18;;;;;;;3.95;3.53;;;;;;;;;;5019377;28;20699;-65
2022/09/04 07:24:48;;;;;;;5.78;3.65;;;;;;;;;;5022216;28;21735;-65
2022/09/04 07:27:23;;;;;;;4.70;3.58;;;;;;;;;;5020314;28;20216;-66
2022/09/04 07:30:04;;;;;;;7.10;4.00;;;;;;;;;;5015302;28;20348;-65
2022/09/04 07:32:35;;;;;;;5.50;3.85;;;;;;;;;;5016422;28;20272;-66
2022/09/04 07:35:22;;;;;;;4.35;3.30;;;;;;;;;;5022403;28;20289;-66
2022/09/04 07:38:20;;;;;;;4.20;3.80;;;;;;;;;;5022622;28;20202;-66
2022/09/04 07:40:57;;;;;;;5.50;3.10;;;;;;;;;;5014249;28;20234;-66
2022/09/04 07:43:32;;;;;;;5.68;3.50;;;;;;;;;;5016279;28;20186;-66
2022/09/04 07:46:04;;;;;;;5.82;4.03;;;;;;;;;;5021034;28;20186;-65
2022/09/04 07:49:03;;;;;;;5.22;3.92;;;;;;;;;;5016084;28;20283;-65
2022/09/04 07:51:36;;;;;;;5.95;3.15;;;;;;;;;;5020881;28;20214;-65
2022/09/04 07:54:26;;;;;;;5.38;3.22;;;;;;;;;;5019939;28;20236;-65
2022/09/04 07:57:22;;;;;;;5.28;3.80;;;;;;;;;;5021436;28;20650;-66
2022/09/04 08:00:03;;;;;;;7.82;3.92;;;;;;;;;;5024868;28;20190;-66
2022/09/04 08:02:31;;;;;;;6.38;4.13;;;;;;;;;;5024292;28;20661;-66
2022/09/04 08:05:09;;;;;;;9.43;4.22;;;;;;;;;;5026718;28;20197;-65
2022/09/04 08:07:37;;;;;;;7.68;3.95;;;;;;;;;;5022804;28;20192;-65
2022/09/04 08:10:08;;;;;;;6.43;4.25;;;;;;;;;;5025825;28;20328;-65
2022/09/04 08:12:56;;;;;;;6.18;3.92;;;;;;;;;;5024586;28;20700;-66
2022/09/04 08:15:28;;;;;;;5.38;3.97;;;;;;;;;;5017528;28;20194;-65
2022/09/04 08:18:52;;;;;;;6.68;4.57;;;;;;;;;;5019161;28;20182;-66
2022/09/04 08:21:39;;;;;;;7.75;4.85;;;;;;;;;;5000262;28;20210;-66
2022/09/04 08:24:30;;;;;;;7.00;4.57;;;;;;;;;;5025278;28;20182;-66
2022/09/04 08:27:33;;;;;;;6.65;4.70;;;;;;;;;;4776243;28;10001458;-66
2022/09/04 08:30:08;;;;;;;5.88;4.68;;;;;;;;;;5019620;28;20501;-66
2022/09/04 08:33:12;;;;;;;6.32;5.13;;;;;;;;;;5013756;28;20240;-65
2022/09/04 08:35:56;;;;;;;7.32;5.00;;;;;;;;;;5012417;28;20190;-65
2022/09/04 08:38:30;;;;;;;10.50;4.68;;;;;;;;;;5012981;28;20680;-66
2022/09/04 08:40:56;;;;;;;8.57;5.93;;;;;;;;;;5011613;28;20724;-66
2022/09/04 08:43:26;;;;;;;7.80;5.22;;;;;;;;;;5018206;28;20175;-66
2022/09/04 08:46:06;;;;;;;6.38;5.03;;;;;;;;;;5021845;28;20194;-66
2022/09/04 08:48:58;;;;;;;8.18;5.78;;;;;;;;;;5019541;28;20221;-66
2022/09/04 08:51:45;;;;;;;7.97;5.03;;;;;;;;;;5013118;28;20221;-66
2022/09/04 08:54:47;;;;;;;7.03;5.25;;;;;;;;;;5017379;28;20182;-66
2022/09/04 08:57:49;;;;;;;10.13;5.03;;;;;;;;;;5011137;28;20299;-66
2022/09/04 09:00:19;;;;;;;7.03;4.93;;;;;;;;;;5009142;28;20650;-66
2022/09/04 09:03:14;;;;;;;5.72;4.63;;;;;;;;;;5011492;28;20179;-66
2022/09/04 09:05:49;;;;;;;10.25;5.22;;;;;;;;;;5019515;28;20187;-67
2022/09/04 09:08:42;;;;;;;7.13;4.22;;;;;;;;;;5012549;28;20677;-65
2022/09/04 09:11:40;;;;;;;9.18;5.22;;;;;;;;;;5019207;28;20190;-65
2022/09/04 09:14:24;;;;;;;7.60;4.82;;;;;;;;;;5019594;28;20731;-65
2022/09/04 09:17:11;;;;;;;6.57;5.03;;;;;;;;;;5016815;28;20339;-66
2022/09/04 09:19:46;;;;;;;6.70;4.65;;;;;;;;;;5015937;28;20244;-67
2022/09/04 09:22:30;;;;;;;9.07;4.63;;;;;;;;;;5022341;28;20178;-66
2022/09/04 09:24:56;;;;;;;7.85;4.78;;;;;;;;;;5022101;28;20214;-67
2022/09/04 09:27:40;;;;;;;7.05;5.13;;;;;;;;;;5018388;28;20251;-66
2022/09/04 09:30:18;;;;;;;6.00;4.30;;;;;;;;;;5021131;28;20187;-66
2022/09/04 09:33:25;;;;;;;5.72;4.32;;;;;;;;;;5021582;28;20647;-66
2022/09/04 09:36:24;;;;;;;5.43;4.32;;;;;;;;;;5023510;28;20217;-66
2022/09/04 09:39:21;;;;;;;6.72;3.60;;;;;;;;;;5022159;28;20495;-65
2022/09/04 09:42:14;;;;;;;4.70;3.70;;;;;;;;;;5022667;28;20561;-67
2022/09/04 09:45:17;;;;;;;5.38;3.75;;;;;;;;;;5019802;28;20195;-64
2022/09/04 09:47:42;;;;;;;4.80;3.63;;;;;;;;;;5019081;28;20684;-64
2022/09/04 09:50:26;;;;;;;4.10;3.63;;;;;;;;;;5020152;28;20258;-64
2022/09/04 09:53:27;;;;;;;9.85;3.97;;;;;;;;;;5019812;28;20292;-65
2022/09/04 09:56:26;;;;;;;4.90;3.70;;;;;;;;;;5022494;28;20170;-64
2022/09/04 09:59:32;;;;;;;6.18;3.60;;;;;;;;;;5022458;28;20649;-65
2022/09/04 10:02:28;;;;;;;5.63;3.17;;;;;;;;;;5018167;28;20648;-65
2022/09/04 10:05:26;;;;;;;4.55;3.45;;;;;;;;;;5024934;28;20190;-65
2022/09/04 10:08:15;;;;;;;4.72;3.72;;;;;;;;;;5022727;28;20187;-65
2022/09/04 10:11:06;;;;;;;5.97;3.45;;;;;;;;;;5022563;28;20295;-66
2022/09/04 10:14:03;;;;;;;7.72;3.95;;;;;;;;;;5020800;28;20265;-65
2022/09/04 10:17:06;;;;;;;4.97;3.43;;;;;;;;;;4674134;28;10001232;-65
2022/09/04 10:19:49;;;;;;;3.42;3.03;;;;;;;;;;5010257;28;20194;-65
2022/09/04 10:23:13;;;;;;;5.65;2.60;;;;;;;;;;5017005;28;20267;-64
2022/09/04 10:26:16;;;;;;;5.07;3.47;;;;;;;;;;4992250;28;20254;-66
2022/09/04 10:29:22;;;;;;;5.03;3.85;;;;;;;;;;5014802;28;20276;-66
2022/09/04 10:32:05;;;;;;;4.97;3.47;;;;;;;;;;5018748;28;20221;-65
2022/09/04 10:35:18;;;;;;;5.50;3.53;;;;;;;;;;5019091;28;20193;-64
2022/09/04 10:37:59;;;;;;;3.80;2.92;;;;;;;;;;4993612;28;20190;-65
2022/09/04 10:40:38;;;;;;;5.43;3.22;;;;;;;;;;5019495;28;20249;-65
2022/09/04 10:43:22;;;;;;;5.20;3.60;;;;;;;;;;5016656;28;20251;-65
2022/09/04 10:46:12;;;;;;;10.27;3.30;;;;;;;;;;5018951;28;20181;-65
2022/09/04 10:49:10;;;;;;;3.65;2.90;;;;;;;;;;5014833;28;20191;-65
2022/09/04 10:52:12;;;;;;;4.10;3.13;;;;;;;;;;5018959;28;20213;-66
2022/09/04 10:55:02;;;;;;;5.28;3.03;;;;;;;;;;5020270;28;20489;-66
2022/09/04 10:57:51;;;;;;;4.75;2.60;;;;;;;;;;5017096;28;20217;-66
2022/09/04 11:00:18;;;;;;;5.57;2.90;;;;;;;;;;5020359;28;20486;-65
2022/09/04 11:03:02;;;;;;;5.60;3.75;;;;;;;;;;5018878;28;20235;-65
2022/09/04 11:05:54;;;;;;;4.25;3.83;;;;;;;;;;5009666;28;20209;-65
2022/09/04 11:08:39;;;;;;;5.13;3.67;;;;;;;;;;5008297;28;20178;-65
2022/09/04 11:11:32;;;;;;;6.32;4.00;;;;;;;;;;5007588;28;20195;-66
2022/09/04 11:14:15;;;;;;;5.00;3.65;;;;;;;;;;5011328;28;20193;-65
2022/09/04 11:17:15;;;;;;;4.93;3.28;;;;;;;;;;5020308;28;20189;-65
2022/09/04 11:20:11;;;;;;;5.55;3.70;;;;;;;;;;5016631;28;20174;-65
2022/09/04 11:22:55;;;;;;;5.65;3.60;;;;;;;;;;5024229;28;20194;-66
2022/09/04 11:25:32;;;;;;;4.25;3.25;;;;;;;;;;5017904;28;20292;-66
2022/09/04 11:28:49;;;;;;;4.43;3.75;;;;;;;;;;5016605;28;20270;-66
2022/09/04 11:31:51;;;;;;;4.47;3.50;;;;;;;;;;5016190;28;20538;-65
2022/09/04 11:34:55;;;;;;;5.32;2.92;;;;;;;;;;5023988;28;20181;-66
2022/09/04 11:37:49;;;;;;;5.40;3.33;;;;;;;;;;5020187;28;20196;-66
2022/09/04 11:40:46;;;;;;;8.32;3.63;;;;;;;;;;5017746;28;20186;-67
2022/09/04 11:43:35;;;;;;;4.82;3.60;;;;;;;;;;5019134;28;20182;-66
2022/09/04 11:46:37;;;;;;;5.82;4.07;;;;;;;;;;5022501;28;20678;-66
2022/09/04 11:49:12;;;;;;;6.03;3.75;;;;;;;;;;5009273;28;20510;-67
2022/09/04 11:52:04;;;;;;;4.63;3.35;;;;;;;;;;5009298;28;20251;-66
2022/09/04 11:54:57;;;;;;;4.05;3.13;;;;;;;;;;5014959;28;20205;-66
2022/09/04 11:58:06;;;;;;;5.07;3.30;;;;;;;;;;5020493;28;20377;-66
2022/09/04 12:00:44;;;;;;;3.60;3.30;;;;;;;;;;5021603;28;20214;-66
2022/09/04 12:03:36;;;;;;;7.38;3.58;;;;;;;;;;5020929;28;20229;-66
2022/09/04 12:06:13;;;;;;;4.28;3.15;;;;;;;;;;5022162;28;20193;-66
2022/09/04 12:09:11;;;;;;;3.50;2.88;;;;;;;;;;5016413;28;20232;-66
2022/09/04 12:11:49;;;;;;;3.80;2.83;;;;;;;;;;5022638;28;20714;-65
2022/09/04 12:14:39;;;;;;;6.38;3.60;;;;;;;;;;5023892;28;20681;-65
2022/09/04 12:17:14;;;;;;;4.45;3.30;;;;;;;;;;5019311;28;20190;-65
2022/09/04 12:20:23;;;;;;;4.35;2.92;;;;;;;;;;4669690;28;10000010;-66
2022/09/04 12:23:22;;;;;;;3.85;3.20;;;;;;;;;;5008862;28;20734;-65
2022/09/04 12:26:21;;;;;;;4.03;3.42;;;;;;;;;;5013894;28;20226;-69
2022/09/04 12:28:49;;;;;;;3.97;3.38;;;;;;;;;;5013173;28;20397;-65
2022/09/04 12:31:33;;;;;;;4.85;3.50;;;;;;;;;;5018947;28;20217;-65
2022/09/04 12:34:29;;;;;;;4.82;3.28;;;;;;;;;;5014755;28;20232;-66
2022/09/04 12:37:18;;;;;;;3.80;3.40;;;;;;;;;;5016016;28;20217;-66
2022/09/04 12:40:09;;;;;;;5.15;3.85;;;;;;;;;;5013662;28;20190;-65
2022/09/04 12:42:49;;;;;;;4.70;3.72;;;;;;;;;;5014846;28;20310;-66
2022/09/04 12:45:43;;;;;;;5.50;3.70;;;;;;;;;;5013721;28;20185;-66
2022/09/04 12:48:37;;;;;;;3.58;3.25;;;;;;;;;;5019032;28;20378;-66
2022/09/04 12:51:12;;;;;;;3.97;3.63;;;;;;;;;;5016871;28;20190;-66
2022/09/04 12:53:59;;;;;;;3.25;2.95;;;;;;;;;;5015841;28;20250;-66
2022/09/04 12:56:46;;;;;;;8.70;3.65;;;;;;;;;;5017986;28;20190;-66
2022/09/04 12:59:53;;;;;;;6.13;3.08;;;;;;;;;;5021964;28;20559;-66
2022/09/04 13:02:26;;;;;;;5.75;3.55;;;;;;;;;;5014704;28;20232;-66
2022/09/04 13:05:20;;;;;;;3.63;3.33;;;;;;;;;;5019367;28;20257;-66
2022/09/04 13:08:06;;;;;;;4.28;3.70;;;;;;;;;;5016680;28;20570;-67
2022/09/04 13:10:45;;;;;;;3.55;2.97;;;;;;;;;;5011836;28;20201;-67
2022/09/04 13:13:34;;;;;;;4.18;3.40;;;;;;;;;;5017611;28;20673;-67
2022/09/04 13:16:07;;;;;;;3.53;3.22;;;;;;;;;;5013907;28;20275;-66
2022/09/04 13:18:55;;;;;;;4.85;3.60;;;;;;;;;;5021909;28;20266;-65
2022/09/04 13:21:45;;;;;;;5.10;3.50;;;;;;;;;;5021781;28;20187;-66
2022/09/04 13:24:26;;;;;;;4.07;3.17;;;;;;;;;;5016824;28;20662;-66
2022/09/04 13:27:20;;;;;;;7.10;3.85;;;;;;;;;;5017168;28;20665;-66
2022/09/04 13:30:20;;;;;;;3.85;3.45;;;;;;;;;;5016955;28;20210;-67
2022/09/04 13:32:49;;;;;;;5.28;2.95;;;;;;;;;;5019272;28;20229;-66
2022/09/04 13:35:31;;;;;;;3.90;3.05;;;;;;;;;;5019861;28;20265;-67
2022/09/04 13:38:17;;;;;;;4.63;2.83;;;;;;;;;;5021604;28;20286;-66
2022/09/04 13:41:18;;;;;;;3.30;3.10;;;;;;;;;;5015998;28;20181;-66
2022/09/04 13:43:49;;;;;;;3.50;3.20;;;;;;;;;;5018753;28;20335;-66
2022/09/04 13:46:27;;;;;;;9.55;3.95;;;;;;;;;;5022709;28;20688;-64
2022/09/04 13:48:58;;;;;;;3.50;3.20;;;;;;;;;;5018342;28;20338;-65
2022/09/04 13:51:28;;;;;;;5.50;3.30;;;;;;;;;;5017450;28;20599;-65
2022/09/04 13:54:16;;;;;;;5.28;3.30;;;;;;;;;;5019712;28;20713;-65
2022/09/04 13:57:02;;;;;;;4.00;3.60;;;;;;;;;;5015332;28;20178;-65
2022/09/04 13:59:28;;;;;;;4.45;3.30;;;;;;;;;;5014701;28;20186;-65
2022/09/04 14:01:57;;;;;;;3.40;3.00;;;;;;;;;;5009921;28;20303;-65
2022/09/04 14:04:36;;;;;;;4.78;3.30;;;;;;;;;;5018485;28;20214;-65
2022/09/04 14:07:09;;;;;;;4.53;3.45;;;;;;;;;;5016934;28;20333;-65
2022/09/04 14:09:44;;;;;;;5.78;3.03;;;;;;;;;;5016867;28;20182;-65
2022/09/04 14:12:32;;;;;;;6.75;3.33;;;;;;;;;;5018602;28;20204;-66
2022/09/04 14:15:12;;;;;;;5.22;3.35;;;;;;;;;;5015528;28;20180;-66
2022/09/04 14:18:03;;;;;;;3.40;3.08;;;;;;;;;;5013343;28;20227;-64
2022/09/04 14:20:41;;;;;;;5.55;3.20;;;;;;;;;;5015253;28;20243;-65
2022/09/04 14:23:27;;;;;;;3.65;3.00;;;;;;;;;;5019505;28;20225;-66
2022/09/04 14:26:02;;;;;;;3.75;3.40;;;;;;;;;;5019494;28;20230;-65
2022/09/04 14:28:45;;;;;;;4.10;3.25;;;;;;;;;;5016264;28;20182;-66
2022/09/04 14:31:51;;;;;;;3.55;3.25;;;;;;;;;;5018412;28;20196;-66
2022/09/04 14:34:45;;;;;;;3.60;3.28;;;;;;;;;;5015630;28;20186;-65
2022/09/04 14:37:39;;;;;;;5.28;3.70;;;;;;;;;;5016198;28;20186;-66
2022/09/04 14:40:18;;;;;;;5.38;3.42;;;;;;;;;;5019774;28;20190;-67
2022/09/04 14:43:11;;;;;;;3.55;3.25;;;;;;;;;;5017222;28;20190;-66
2022/09/04 14:46:31;;;;;;;3.90;3.42;;;;;;;;;;5017873;28;20257;-66
2022/09/04 14:49:01;;;;;;;5.28;3.25;;;;;;;;;;4996748;28;20187;-64
2022/09/04 14:51:27;;;;;;;4.35;3.45;;;;;;;;;;4994121;28;20225;-65
2022/09/04 14:53:57;;;;;;;3.83;3.40;;;;;;;;;;5008301;28;20206;-66
2022/09/04 14:56:32;;;;;;;3.50;3.20;;;;;;;;;;5021753;28;20299;-65
2022/09/04 14:59:04;;;;;;;3.55;3.25;;;;;;;;;;5019819;28;20185;-66
2022/09/04 15:01:33;;;;;;;6.43;3.40;;;;;;;;;;5020123;28;20186;-65
2022/09/04 15:04:22;;;;;;;3.50;3.20;;;;;;;;;;5018567;28;20288;-65
2022/09/04 15:06:53;;;;;;;4.22;3.38;;;;;;;;;;5014708;28;20672;-66
2022/09/04 15:09:24;;;;;;;3.55;3.25;;;;;;;;;;5017477;28;20182;-66
2022/09/04 15:11:55;;;;;;;4.55;3.63;;;;;;;;;;5018358;28;20214;-66
2022/09/04 15:14:35;;;;;;;4.95;3.25;;;;;;;;;;5019001;28;20207;-66
2022/09/04 15:17:11;;;;;;;5.60;3.55;;;;;;;;;;5021131;28;20193;-65
2022/09/04 15:20:01;;;;;;;4.65;3.28;;;;;;;;;;5017658;28;20284;-65
2022/09/04 15:22:36;;;;;;;5.25;3.70;;;;;;;;;;5019801;28;20178;-65
2022/09/04 15:25:16;;;;;;;4.00;3.15;;;;;;;;;;5014981;28;20237;-65
2022/09/04 15:27:57;;;;;;;3.70;3.25;;;;;;;;;;5019439;28;20408;-65
2022/09/04 15:30:27;;;;;;;6.97;3.47;;;;;;;;;;5014763;28;20213;-65
2022/09/04 15:33:10;;;;;;;4.65;3.63;;;;;;;;;;5016045;28;20210;-66
2022/09/04 15:35:37;;;;;;;4.90;3.47;;;;;;;;;;5018612;28;20186;-66
2022/09/04 15:38:21;;;;;;;3.35;3.05;;;;;;;;;;5012385;28;20183;-65
2022/09/04 15:40:52;;;;;;;3.65;3.35;;;;;;;;;;5015197;28;20527;-65
2022/09/04 15:43:30;;;;;;;5.35;3.50;;;;;;;;;;5012280;28;20250;-65
2022/09/04 15:46:10;;;;;;;4.30;3.90;;;;;;;;;;5011233;28;20182;-65
2022/09/04 15:48:58;;;;;;;3.50;3.15;;;;;;;;;;5021114;28;20201;-66
2022/09/04 15:52:08;;;;;;;4.00;3.65;;;;;;;;;;5015389;28;20671;-66
2022/09/04 15:54:39;;;;;;;3.58;3.28;;;;;;;;;;5017117;28;20540;-66
2022/09/04 15:57:16;;;;;;;5.25;3.67;;;;;;;;;;5020516;28;20186;-65
2022/09/04 15:59:47;;;;;;;7.32;3.05;;;;;;;;;;5021531;28;20262;-66
2022/09/04 16:02:36;;;;;;;4.43;3.25;;;;;;;;;;5021167;28;20182;-66
2022/09/04 16:05:15;;;;;;;5.43;4.25;;;;;;;;;;5022770;28;20319;-66
2022/09/04 16:07:50;;;;;;;3.80;2.97;;;;;;;;;;5019981;28;20566;-65
2022/09/04 16:10:24;;;;;;;5.68;3.58;;;;;;;;;;5015809;28;20725;-66
2022/09/04 16:12:55;;;;;;;4.90;3.40;;;;;;;;;;5020940;28;20597;-67
2022/09/04 16:15:26;;;;;;;3.63;3.13;;;;;;;;;;5016570;28;20765;-66
2022/09/04 16:17:53;;;;;;;7.35;4.07;;;;;;;;;;5017247;28;20183;-66
2022/09/04 16:20:21;;;;;;;4.20;3.78;;;;;;;;;;5021215;28;20573;-66
2022/09/04 16:22:59;;;;;;;4.93;3.65;;;;;;;;;;5025801;28;20186;-66
2022/09/04 16:25:31;;;;;;;6.70;3.17;;;;;;;;;;5018851;28;20231;-66
2022/09/04 16:28:07;;;;;;;9.02;3.50;;;;;;;;;;5018777;28;20259;-66
2022/09/04 16:30:54;;;;;;;4.93;3.25;;;;;;;;;;5022935;28;20186;-66